Larchland, Illinois
Current Conditions -  °F | °C
As of 10:55 PM on Saturday 22 Nov 2014 (Local Time) from KGBG Reporting Station
Overcast Overcast  
Wind Chill: 51°   Ceiling: 900
Heat Index: 51°   Visibility: 10mi
Dew Point: 48°   Wind: 14mph
Humidity: 89%   Direction: 180°S
Pressure: 29.8"   Gusts: 22mph
Location:  40.8988°N, 90.6511°W
Report Text: KGBG 230455Z AUTO 18012G19KT 10SM OVC009 11/09 A2980 RMK AO2 T01070090
Loading
Personal Weather Stations






























Interactive Weather Map New forecast layout! Learn more

10-Day Weather Forecast

Advertisements
Track Severe Weather on mobile